createdAt,value
2023-01-15T00:01:35.830Z,101508.13
2023-01-15T00:04:09.730Z,101511.48
2023-01-15T00:06:44.123Z,101512.56
2023-01-15T00:09:17.701Z,101516.24
2023-01-15T00:11:49.927Z,101517.00
2023-01-15T00:14:22.249Z,101518.69
2023-01-15T00:16:55.405Z,101516.69
2023-01-15T00:19:27.948Z,101517.14
2023-01-15T00:22:01.518Z,101516.94
2023-01-15T00:24:51.043Z,101515.97
2023-01-15T00:27:41.945Z,101515.34
2023-01-15T00:30:17.874Z,101515.33
2023-01-15T00:32:50.287Z,101508.55
2023-01-15T00:35:24.550Z,101512.77
2023-01-15T00:37:56.870Z,101510.03
2023-01-15T00:40:29.198Z,101510.60
2023-01-15T00:43:01.352Z,101508.89
2023-01-15T00:45:33.555Z,101506.23
2023-01-15T00:48:05.812Z,101505.48
2023-01-15T00:50:38.101Z,101504.49
2023-01-15T00:53:10.277Z,101501.15
2023-01-15T00:55:42.441Z,101499.59
2023-01-15T00:58:14.781Z,101488.70
2023-01-15T01:00:47.127Z,101487.98
2023-01-15T01:03:19.333Z,101482.48
2023-01-15T01:05:51.951Z,101479.34
2023-01-15T01:08:24.316Z,101475.70
2023-01-15T01:11:06.296Z,101475.09
2023-01-15T01:13:40.377Z,101474.64
2023-01-15T01:16:25.653Z,101473.64
2023-01-15T01:18:57.957Z,101471.02
2023-01-15T01:21:31.221Z,101470.20
2023-01-15T01:24:03.956Z,101469.08
2023-01-15T01:26:36.695Z,101464.10
2023-01-15T01:29:08.973Z,101461.85
2023-01-15T01:31:41.457Z,101459.58
2023-01-15T01:34:15.048Z,101463.29
2023-01-15T01:36:47.761Z,101470.83
2023-01-15T01:39:20.842Z,101469.52
2023-01-15T01:41:53.019Z,101467.46
2023-01-15T01:45:08.149Z,101463.86
2023-01-15T01:47:40.524Z,101458.23
2023-01-15T01:50:15.690Z,101463.33
2023-01-15T01:52:52.733Z,101461.42
2023-01-15T01:55:27.905Z,101459.20
2023-01-15T01:58:03.553Z,101456.23
2023-01-15T02:00:37.318Z,101449.48
2023-01-15T02:03:11.965Z,101446.91
2023-01-15T02:05:50.371Z,101446.98
2023-01-15T02:08:23.042Z,101453.58
2023-01-15T02:10:57.483Z,101451.75
2023-01-15T02:13:37.488Z,101453.15
2023-01-15T02:16:14.985Z,101461.58
2023-01-15T02:18:55.766Z,101462.20
2023-01-15T02:21:40.120Z,101466.55
2023-01-15T02:24:20.334Z,101461.98
2023-01-15T02:27:08.652Z,101452.82
2023-01-15T02:29:57.801Z,101450.95
2023-01-15T02:32:41.329Z,101446.52
2023-01-15T02:35:20.073Z,101451.08
2023-01-15T02:37:56.616Z,101452.27
2023-01-15T02:40:29.719Z,101454.83
2023-01-15T02:43:02.579Z,101453.86
2023-01-15T02:45:38.050Z,101452.08
2023-01-15T02:48:15.064Z,101451.73
2023-01-15T02:50:53.746Z,101449.48
2023-01-15T02:53:31.074Z,101446.26
2023-01-15T02:56:09.346Z,101444.00
2023-01-15T02:58:44.020Z,101442.77
2023-01-15T03:01:20.046Z,101439.11
2023-01-15T03:03:57.975Z,101439.89
2023-01-15T03:06:39.275Z,101441.23
2023-01-15T03:09:12.327Z,101444.83
2023-01-15T03:11:50.732Z,101446.65
2023-01-15T03:14:27.027Z,101446.27
2023-01-15T03:17:06.405Z,101442.91
2023-01-15T03:19:45.114Z,101448.02
2023-01-15T03:22:22.991Z,101450.73
2023-01-15T03:24:58.902Z,101445.23
2023-01-15T03:27:29.768Z,101443.66
2023-01-15T03:30:07.456Z,101445.98
2023-01-15T03:32:40.429Z,101445.94
2023-01-15T03:35:39.573Z,101445.77
2023-01-15T03:38:12.195Z,101443.00
2023-01-15T03:40:50.350Z,101447.30
2023-01-15T03:43:43.143Z,101443.10
2023-01-15T03:46:37.452Z,101447.08
2023-01-15T03:49:15.722Z,101447.06
2023-01-15T03:51:57.211Z,101445.16
2023-01-15T03:54:37.069Z,101442.98
2023-01-15T03:57:16.544Z,101442.42
2023-01-15T03:59:54.571Z,101443.49
2023-01-15T04:02:28.664Z,101440.80
2023-01-15T04:05:01.947Z,101439.77
2023-01-15T04:07:34.805Z,101438.46
2023-01-15T04:10:10.969Z,101439.93
2023-01-15T04:12:43.265Z,101440.67
2023-01-15T04:15:15.641Z,101441.79
2023-01-15T04:17:47.874Z,101441.19
2023-01-15T04:20:20.508Z,101439.41
2023-01-15T04:22:52.795Z,101441.73
2023-01-15T04:25:24.946Z,101438.76
2023-01-15T04:27:58.092Z,101439.28
2023-01-15T04:30:30.420Z,101436.46
2023-01-15T04:33:03.097Z,101437.24
2023-01-15T04:35:36.241Z,101435.65
2023-01-15T04:38:08.599Z,101433.89
2023-01-15T04:40:58.270Z,101432.05
2023-01-15T04:43:47.831Z,101434.48
2023-01-15T04:46:24.330Z,101437.64
2023-01-15T04:48:56.529Z,101438.63
2023-01-15T04:51:29.024Z,101438.55
2023-01-15T04:54:02.925Z,101440.97
2023-01-15T04:56:38.964Z,101448.84
2023-01-15T04:59:09.779Z,101447.63
2023-01-15T05:01:51.288Z,101445.56
2023-01-15T05:04:26.765Z,101446.86
2023-01-15T05:06:59.020Z,101448.23
2023-01-15T05:09:31.231Z,101445.82
2023-01-15T05:12:03.814Z,101447.90
2023-01-15T05:14:36.034Z,101448.39
2023-01-15T05:17:08.341Z,101447.43
2023-01-15T05:19:40.726Z,101446.49
2023-01-15T05:22:12.969Z,101446.07
2023-01-15T05:24:45.218Z,101442.15
2023-01-15T05:27:17.380Z,101443.11
2023-01-15T05:29:49.622Z,101437.06
2023-01-15T05:32:21.806Z,101438.08
2023-01-15T05:34:54.138Z,101438.41
2023-01-15T05:37:26.386Z,101444.64
2023-01-15T05:39:58.589Z,101444.56
2023-01-15T05:42:30.873Z,101439.11
2023-01-15T05:45:03.222Z,101438.91
2023-01-15T05:47:36.122Z,101442.08
2023-01-15T05:50:09.810Z,101443.98
2023-01-15T05:52:42.241Z,101442.58
2023-01-15T05:55:14.398Z,101440.92
2023-01-15T05:57:46.557Z,101442.54
2023-01-15T06:00:20.974Z,101441.81
2023-01-15T06:02:53.460Z,101441.61
2023-01-15T06:05:25.801Z,101439.45
2023-01-15T06:07:59.938Z,101441.60
2023-01-15T06:10:33.338Z,101442.58
2023-01-15T06:13:05.607Z,101444.31
2023-01-15T06:15:38.079Z,101447.09
2023-01-15T06:18:10.363Z,101444.58
2023-01-15T06:20:43.922Z,101450.84
2023-01-15T06:23:16.070Z,101447.77
2023-01-15T06:25:48.756Z,101448.93
2023-01-15T06:28:21.006Z,101451.66
2023-01-15T06:30:53.516Z,101453.23
2023-01-15T06:33:26.179Z,101451.75
2023-01-15T06:35:58.344Z,101451.13
2023-01-15T06:38:30.897Z,101453.46
2023-01-15T06:41:04.768Z,101453.22
2023-01-15T06:43:54.280Z,101452.27
2023-01-15T06:46:43.926Z,101452.93
2023-01-15T06:49:16.204Z,101458.52
2023-01-15T06:51:48.522Z,101458.46
2023-01-15T06:54:20.797Z,101459.98
2023-01-15T06:56:53.168Z,101461.55
2023-01-15T06:59:25.417Z,101450.88
2023-01-15T07:01:57.715Z,101455.74
2023-01-15T07:04:29.950Z,101450.81
2023-01-15T07:07:02.186Z,101458.17
2023-01-15T07:09:34.473Z,101459.43
2023-01-15T07:12:07.228Z,101456.92
2023-01-15T07:14:39.872Z,101457.55
2023-01-15T07:17:12.185Z,101458.32
2023-01-15T07:19:45.337Z,101459.81
2023-01-15T07:22:17.537Z,101456.92
2023-01-15T07:24:49.694Z,101455.63
2023-01-15T07:27:21.876Z,101459.59
2023-01-15T07:29:54.192Z,101455.87
2023-01-15T07:32:30.112Z,101456.93
2023-01-15T07:35:00.572Z,101457.41
2023-01-15T07:37:32.720Z,101455.20
2023-01-15T07:40:05.263Z,101454.02
2023-01-15T07:42:55.925Z,101454.80
2023-01-15T07:45:45.854Z,101457.18
2023-01-15T07:48:35.307Z,101460.50
2023-01-15T07:51:07.979Z,101465.15
2023-01-15T07:53:40.604Z,101462.98
2023-01-15T07:56:13.946Z,101462.86
2023-01-15T07:58:50.296Z,101459.38
2023-01-15T08:01:22.700Z,101461.92
2023-01-15T08:03:55.023Z,101461.04
2023-01-15T08:06:27.337Z,101459.66
2023-01-15T08:08:59.613Z,101461.40
2023-01-15T08:11:49.278Z,101464.80
2023-01-15T08:14:35.635Z,101458.48
2023-01-15T08:17:07.855Z,101459.48
2023-01-15T08:19:40.045Z,101456.28
2023-01-15T08:22:13.381Z,101454.70
2023-01-15T08:24:45.585Z,101454.19
2023-01-15T08:27:17.789Z,101456.02
2023-01-15T08:29:49.960Z,101460.17
2023-01-15T08:32:22.186Z,101461.45
2023-01-15T08:34:57.361Z,101459.90
2023-01-15T08:37:29.657Z,101456.48
2023-01-15T08:40:01.951Z,101460.88
2023-01-15T08:42:34.167Z,101461.65
2023-01-15T08:45:07.523Z,101460.34
2023-01-15T08:47:39.920Z,101456.83
2023-01-15T08:50:14.067Z,101454.52
2023-01-15T08:52:46.345Z,101453.91
2023-01-15T08:55:18.810Z,101455.14
2023-01-15T08:57:51.995Z,101454.02
2023-01-15T09:00:25.191Z,101448.77
2023-01-15T09:02:57.418Z,101445.15
2023-01-15T09:05:29.749Z,101441.48
2023-01-15T09:08:01.962Z,101437.09
2023-01-15T09:10:34.426Z,101434.36
2023-01-15T09:13:07.353Z,101432.16
2023-01-15T09:15:39.513Z,101425.83
2023-01-15T09:18:12.821Z,101423.33
2023-01-15T09:20:45.417Z,101420.77
2023-01-15T09:23:17.605Z,101417.88
2023-01-15T09:25:56.696Z,101415.42
2023-01-15T09:28:29.675Z,101417.73
2023-01-15T09:31:03.541Z,101412.17
2023-01-15T09:33:35.808Z,101412.47
2023-01-15T09:36:14.328Z,101404.39
2023-01-15T09:38:46.654Z,101401.64
2023-01-15T09:41:36.657Z,101392.30
2023-01-15T09:44:21.764Z,101390.64
2023-01-15T09:47:03.065Z,101385.59
2023-01-15T09:49:52.197Z,101375.81
2023-01-15T09:52:34.230Z,101375.17
2023-01-15T09:55:15.303Z,101372.80
2023-01-15T09:57:50.933Z,101373.40
2023-01-15T10:00:26.241Z,101369.59
2023-01-15T10:03:06.108Z,101361.11
2023-01-15T10:05:44.557Z,101355.86
2023-01-15T10:08:21.499Z,101351.68
2023-01-15T10:10:57.919Z,101347.02
2023-01-15T10:13:40.286Z,101340.15
2023-01-15T10:16:14.127Z,101341.30
2023-01-15T10:18:46.914Z,101338.91
2023-01-15T10:21:32.983Z,101335.63
2023-01-15T10:24:16.194Z,101335.05
2023-01-15T10:26:54.908Z,101332.21
2023-01-15T10:29:33.419Z,101327.30
2023-01-15T10:32:23.536Z,101322.10
2023-01-15T10:35:13.358Z,101320.86
2023-01-15T10:37:50.691Z,101313.71
2023-01-15T10:40:49.687Z,101309.95
2023-01-15T10:43:26.354Z,101303.80
2023-01-15T10:46:01.050Z,101300.75
2023-01-15T10:48:39.721Z,101293.52
2023-01-15T10:51:18.885Z,101290.63
2023-01-15T10:53:56.494Z,101291.41
2023-01-15T10:56:39.167Z,101286.81
2023-01-15T10:59:22.313Z,101282.73
2023-01-15T11:01:57.212Z,101282.34
2023-01-15T11:04:32.959Z,101276.64
2023-01-15T11:07:05.669Z,101269.55
2023-01-15T11:09:39.450Z,101259.98
2023-01-15T11:12:45.111Z,101255.50
2023-01-15T11:15:41.330Z,101250.28
2023-01-15T11:18:41.297Z,101248.45
2023-01-15T11:21:19.702Z,101245.83
2023-01-15T11:23:54.495Z,101239.84
2023-01-15T11:26:29.911Z,101240.65
2023-01-15T11:29:14.268Z,101238.45
2023-01-15T11:31:46.560Z,101236.27
2023-01-15T11:34:24.346Z,101233.98
2023-01-15T11:37:06.465Z,101225.80
2023-01-15T11:39:39.109Z,101224.91
2023-01-15T11:42:37.224Z,101223.98
2023-01-15T11:45:36.102Z,101220.20
2023-01-15T11:48:36.087Z,101220.97
2023-01-15T11:51:13.044Z,101216.38
2023-01-15T11:53:50.896Z,101215.40
2023-01-15T11:56:31.359Z,101206.42
2023-01-15T11:59:10.613Z,101202.55
2023-01-15T12:01:54.943Z,101200.60
2023-01-15T12:04:32.299Z,101198.10
2023-01-15T12:07:05.579Z,101193.19
2023-01-15T12:10:07.621Z,101196.73
2023-01-15T12:12:55.466Z,101186.71
2023-01-15T12:15:42.852Z,101188.23
2023-01-15T12:18:49.922Z,101188.48
2023-01-15T12:21:44.612Z,101184.46
2023-01-15T12:24:36.885Z,101176.59
2023-01-15T12:27:30.270Z,101176.65
2023-01-15T12:30:11.340Z,101174.52
2023-01-15T12:32:48.075Z,101171.84
2023-01-15T12:35:29.794Z,101170.86
2023-01-15T12:38:12.001Z,101172.63
2023-01-15T12:40:50.331Z,101170.44
2023-01-15T12:43:44.803Z,101172.84
2023-01-15T12:46:20.977Z,101174.14
2023-01-15T12:48:59.611Z,101172.05
2023-01-15T12:51:41.969Z,101165.34
2023-01-15T12:54:20.796Z,101164.85
2023-01-15T12:57:01.738Z,101167.32
2023-01-15T12:59:40.795Z,101166.23
2023-01-15T13:02:23.487Z,101167.36
2023-01-15T13:05:00.357Z,101162.55
2023-01-15T13:07:38.642Z,101158.13
2023-01-15T13:10:20.420Z,101159.57
2023-01-15T13:12:52.978Z,101159.95
2023-01-15T13:15:31.983Z,101157.56
2023-01-15T13:18:15.123Z,101154.88
2023-01-15T13:20:51.771Z,101157.77
2023-01-15T13:23:42.580Z,101157.67
2023-01-15T13:26:27.697Z,101158.83
2023-01-15T13:29:11.457Z,101158.38
2023-01-15T13:32:06.601Z,101150.39
2023-01-15T13:34:45.388Z,101153.38
2023-01-15T13:37:25.703Z,101154.63
2023-01-15T13:40:03.659Z,101148.77
2023-01-15T13:42:38.131Z,101148.63
2023-01-15T13:48:13.808Z,101147.82
2023-01-15T13:50:55.281Z,101149.85
2023-01-15T13:53:31.871Z,101151.02
2023-01-15T13:56:07.615Z,101147.84
2023-01-15T13:58:52.881Z,101147.34
2023-01-15T14:01:33.617Z,101143.11
2023-01-15T14:04:15.366Z,101143.59
2023-01-15T14:06:49.032Z,101137.90
2023-01-15T14:09:34.451Z,101132.37
2023-01-15T14:12:18.218Z,101131.83
2023-01-15T14:15:17.647Z,101131.77
2023-01-15T14:18:09.701Z,101130.52
2023-01-15T14:20:53.910Z,101126.57
2023-01-15T14:23:53.635Z,101126.84
2023-01-15T14:26:36.852Z,101120.67
2023-01-15T14:29:29.359Z,101119.95
2023-01-15T14:32:10.720Z,101114.08
2023-01-15T14:34:44.612Z,101111.56
2023-01-15T14:37:30.578Z,101111.31
2023-01-15T14:40:06.279Z,101108.77
2023-01-15T14:42:59.609Z,101109.34
2023-01-15T14:45:36.300Z,101106.45
2023-01-15T14:48:19.654Z,101106.46
2023-01-15T14:50:54.112Z,101108.20
2023-01-15T14:53:38.537Z,101108.19
2023-01-15T14:56:19.525Z,101109.31
2023-01-15T14:59:02.656Z,101110.33
2023-01-15T15:01:43.500Z,101108.27
2023-01-15T15:04:25.694Z,101105.83
2023-01-15T15:07:01.824Z,101104.48
2023-01-15T15:09:43.582Z,101105.02
2023-01-15T15:12:27.253Z,101102.59
2023-01-15T15:15:08.908Z,101101.08
2023-01-15T15:17:54.553Z,101095.67
2023-01-15T15:20:40.477Z,101093.13
2023-01-15T15:23:18.551Z,101094.35
2023-01-15T15:25:58.929Z,101095.84
2023-01-15T15:28:32.061Z,101090.47
2023-01-15T15:31:04.547Z,101097.01
2023-01-15T15:33:42.372Z,101099.17
2023-01-15T15:36:15.160Z,101099.44
2023-01-15T15:38:56.851Z,101102.56
2023-01-15T15:41:50.176Z,101104.91
2023-01-15T15:44:50.196Z,101100.45
2023-01-15T15:47:38.382Z,101093.45
2023-01-15T15:50:22.391Z,101089.23
2023-01-15T15:52:55.758Z,101089.31
2023-01-15T15:55:33.577Z,101092.20
2023-01-15T15:58:07.411Z,101091.56
2023-01-15T16:00:43.418Z,101097.05
2023-01-15T16:03:20.428Z,101095.73
2023-01-15T16:06:01.250Z,101094.83
2023-01-15T16:08:36.154Z,101099.80
2023-01-15T16:11:13.238Z,101099.93
2023-01-15T16:13:49.503Z,101097.78
2023-01-15T16:16:23.039Z,101096.31
2023-01-15T16:18:57.317Z,101095.38
2023-01-15T16:21:33.493Z,101096.73
2023-01-15T16:24:08.369Z,101098.29
2023-01-15T16:26:43.850Z,101106.36
2023-01-15T16:29:21.774Z,101100.61
2023-01-15T16:32:10.938Z,101097.42
2023-01-15T16:34:48.382Z,101093.75
2023-01-15T16:37:30.773Z,101099.01
2023-01-15T16:40:05.902Z,101094.98
2023-01-15T16:42:43.300Z,101088.10
2023-01-15T16:45:26.056Z,101083.90
2023-01-15T16:48:23.964Z,101083.45
2023-01-15T16:50:56.629Z,101078.40
2023-01-15T16:53:41.124Z,101080.56
2023-01-15T16:56:29.011Z,101081.24
2023-01-15T16:59:01.242Z,101081.32
2023-01-15T17:01:42.030Z,101080.95
2023-01-15T17:04:29.713Z,101078.23
2023-01-15T17:07:05.176Z,101077.33
2023-01-15T17:09:39.135Z,101074.59
2023-01-15T17:12:20.134Z,101075.05
2023-01-15T17:14:52.385Z,101070.25
2023-01-15T17:17:30.766Z,101068.35
2023-01-15T17:20:03.180Z,101065.75
2023-01-15T17:22:36.462Z,101064.02
2023-01-15T17:25:26.267Z,101058.65
2023-01-15T17:27:59.604Z,101058.89
2023-01-15T17:30:33.194Z,101059.56
2023-01-15T17:33:07.814Z,101059.23
2023-01-15T17:35:42.677Z,101064.91
2023-01-15T17:38:14.983Z,101064.26
2023-01-15T17:40:47.412Z,101060.39
2023-01-15T17:43:19.763Z,101057.42
2023-01-15T17:45:52.098Z,101059.79
2023-01-15T17:48:24.354Z,101060.15
2023-01-15T17:51:04.676Z,101062.23
2023-01-15T17:53:37.104Z,101060.33
2023-01-15T17:56:28.120Z,101059.17
2023-01-15T17:59:29.179Z,101054.79
2023-01-15T18:02:19.219Z,101059.92
2023-01-15T18:05:12.363Z,101060.09
2023-01-15T18:07:46.531Z,101058.95
2023-01-15T18:10:21.244Z,101059.03
2023-01-15T18:12:53.554Z,101064.02
2023-01-15T18:15:25.753Z,101061.61
2023-01-15T18:17:58.101Z,101058.71
2023-01-15T18:20:31.795Z,101056.29
2023-01-15T18:23:07.167Z,101048.38
2023-01-15T18:25:46.068Z,101045.39
2023-01-15T18:28:18.341Z,101040.92
2023-01-15T18:30:51.328Z,101037.02
2023-01-15T18:33:23.530Z,101033.30
2023-01-15T18:36:05.179Z,101025.17
2023-01-15T18:38:40.471Z,101021.63
2023-01-15T18:41:37.435Z,101014.93
2023-01-15T18:44:31.135Z,101010.48
2023-01-15T18:47:05.764Z,101011.92
2023-01-15T18:49:38.005Z,101012.41
2023-01-15T18:52:27.244Z,101010.23
2023-01-15T18:54:59.550Z,101008.98
2023-01-15T18:57:33.316Z,101007.98
2023-01-15T19:00:06.176Z,101012.40
2023-01-15T19:02:40.096Z,101013.95
2023-01-15T19:05:15.191Z,101011.35
2023-01-15T19:07:48.441Z,101009.98
2023-01-15T19:10:21.969Z,101009.18
2023-01-15T19:12:54.152Z,101009.35
2023-01-15T19:15:43.768Z,101007.36
2023-01-15T19:18:33.273Z,101004.21
2023-01-15T19:21:12.949Z,101011.09
2023-01-15T19:23:46.273Z,101006.48
2023-01-15T19:26:18.598Z,101005.42
2023-01-15T19:28:50.807Z,101010.70
2023-01-15T19:31:39.388Z,101003.45
2023-01-15T19:34:32.708Z,101003.32
2023-01-15T19:37:04.413Z,101000.66
2023-01-15T19:39:36.613Z,100996.71
2023-01-15T19:42:28.969Z,100993.06
2023-01-15T19:45:18.757Z,100991.36
2023-01-15T19:48:09.005Z,100989.05
2023-01-15T19:50:42.857Z,100987.33
2023-01-15T19:53:15.986Z,100986.20
2023-01-15T19:55:48.230Z,100981.45
2023-01-15T19:58:20.816Z,100981.06
2023-01-15T20:00:53.478Z,100978.44
2023-01-15T20:03:28.464Z,100971.92
2023-01-15T20:06:00.812Z,100970.76
2023-01-15T20:08:35.232Z,100963.85
2023-01-15T20:11:10.962Z,100962.83
2023-01-15T20:13:53.953Z,100963.84
2023-01-15T20:16:28.237Z,100965.71
2023-01-15T20:19:00.503Z,100969.39
2023-01-15T20:21:32.832Z,100971.35
2023-01-15T20:24:05.183Z,100972.22
2023-01-15T20:26:37.919Z,100969.27
2023-01-15T20:29:10.098Z,100966.91
2023-01-15T20:31:42.500Z,100959.19
2023-01-15T20:34:14.695Z,100958.02
2023-01-15T20:36:47.758Z,100953.04
2023-01-15T20:39:19.966Z,100947.09
2023-01-15T20:42:09.607Z,100945.23
2023-01-15T20:44:56.944Z,100937.27
2023-01-15T20:47:47.943Z,100942.97
2023-01-15T20:50:20.085Z,100939.15
2023-01-15T20:52:53.826Z,100944.65
2023-01-15T20:55:31.122Z,100941.92
2023-01-15T20:58:05.429Z,100940.34
2023-01-15T21:00:37.726Z,100943.91
2023-01-15T21:03:11.250Z,100938.68
2023-01-15T21:05:43.659Z,100932.42
2023-01-15T21:08:15.838Z,100928.55
2023-01-15T21:10:52.914Z,100931.42
2023-01-15T21:13:25.126Z,100938.16
2023-01-15T21:15:59.120Z,100939.21
2023-01-15T21:18:32.953Z,100937.36
2023-01-15T21:21:11.061Z,100937.84
2023-01-15T21:23:45.569Z,100933.58
2023-01-15T21:26:18.766Z,100932.55
2023-01-15T21:28:53.684Z,100926.90
2023-01-15T21:31:25.989Z,100927.50
2023-01-15T21:33:58.990Z,100927.42
2023-01-15T21:36:31.229Z,100928.42
2023-01-15T21:39:05.234Z,100922.69
2023-01-15T21:41:54.687Z,100924.61
2023-01-15T21:44:34.128Z,100928.64
2023-01-15T21:47:09.614Z,100933.45
2023-01-15T21:49:42.759Z,100924.97
2023-01-15T21:52:17.338Z,100926.91
2023-01-15T21:54:50.333Z,100920.79
2023-01-15T21:57:22.628Z,100922.40
2023-01-15T21:59:54.841Z,100923.52
2023-01-15T22:02:29.936Z,100922.45
2023-01-15T22:05:02.378Z,100926.56
2023-01-15T22:07:35.001Z,100926.14
2023-01-15T22:10:09.289Z,100925.45
2023-01-15T22:12:43.279Z,100924.79
2023-01-15T22:15:16.808Z,100931.64
2023-01-15T22:17:53.871Z,100931.16
2023-01-15T22:20:26.109Z,100929.30
2023-01-15T22:22:58.512Z,100926.47
2023-01-15T22:25:30.795Z,100920.89
2023-01-15T22:28:02.918Z,100914.05
2023-01-15T22:30:37.853Z,100905.16
2023-01-15T22:33:10.980Z,100898.31
2023-01-15T22:35:43.213Z,100892.23
2023-01-15T22:38:15.782Z,100896.72
2023-01-15T22:40:48.157Z,100896.11
2023-01-15T22:43:20.425Z,100888.69
2023-01-15T22:45:52.679Z,100886.20
2023-01-15T22:48:24.934Z,100890.51
2023-01-15T22:50:57.107Z,100889.73
2023-01-15T22:53:29.302Z,100886.13
2023-01-15T22:56:01.997Z,100881.92
2023-01-15T22:58:34.329Z,100872.98
2023-01-15T23:01:06.756Z,100864.68
2023-01-15T23:03:39.509Z,100854.95
2023-01-15T23:06:13.783Z,100850.30
2023-01-15T23:08:46.089Z,100848.80
2023-01-15T23:11:18.950Z,100848.79
2023-01-15T23:13:51.122Z,100843.33
2023-01-15T23:16:23.895Z,100837.84
2023-01-15T23:18:56.153Z,100837.66
2023-01-15T23:21:29.549Z,100835.80
2023-01-15T23:24:03.618Z,100830.89
2023-01-15T23:26:37.267Z,100830.85
2023-01-15T23:29:09.758Z,100828.83
2023-01-15T23:31:42.129Z,100818.49
2023-01-15T23:34:14.278Z,100818.09
2023-01-15T23:36:46.566Z,100812.48
2023-01-15T23:39:18.850Z,100807.71
2023-01-15T23:42:08.512Z,100806.02
2023-01-15T23:44:58.074Z,100811.86
2023-01-15T23:47:30.295Z,100806.15
2023-01-15T23:50:03.492Z,100805.70
2023-01-15T23:52:35.807Z,100806.49
2023-01-15T23:55:08.900Z,100806.35
2023-01-15T23:57:41.057Z,100803.74
